createdAt,value
2023-02-23T00:02:08.935Z,29.97
2023-02-23T00:04:36.873Z,26.43
2023-02-23T00:07:06.158Z,28.97
2023-02-23T00:09:36.997Z,27.90
2023-02-23T00:12:09.476Z,27.50
2023-02-23T00:14:40.635Z,29.83
2023-02-23T00:17:14.555Z,28.40
2023-02-23T00:19:43.556Z,25.43
2023-02-23T00:22:12.015Z,28.07
2023-02-23T00:24:42.322Z,28.33
2023-02-23T00:27:10.040Z,26.80
2023-02-23T00:29:40.700Z,27.10
2023-02-23T00:32:08.605Z,27.87
2023-02-23T00:34:36.835Z,28.47
2023-02-23T00:37:04.622Z,29.50
2023-02-23T00:39:32.102Z,28.80
2023-02-23T00:42:03.045Z,27.90
2023-02-23T00:44:30.753Z,28.37
2023-02-23T00:46:58.011Z,28.27
2023-02-23T00:49:25.431Z,29.00
2023-02-23T00:51:53.466Z,28.10
2023-02-23T00:54:21.672Z,28.30
2023-02-23T00:56:49.408Z,26.20
2023-02-23T00:59:21.530Z,27.80
2023-02-23T01:01:50.332Z,27.40
2023-02-23T01:04:23.136Z,29.67
2023-02-23T01:06:50.605Z,28.07
2023-02-23T01:09:28.035Z,28.30
2023-02-23T01:11:56.866Z,29.23
2023-02-23T01:14:24.577Z,30.00
2023-02-23T01:16:52.142Z,27.77
2023-02-23T01:19:19.718Z,27.87
2023-02-23T01:21:50.938Z,27.53
2023-02-23T01:24:18.472Z,28.70
2023-02-23T01:26:46.217Z,28.20
2023-02-23T01:29:18.196Z,28.60
2023-02-23T01:31:47.125Z,27.43
2023-02-23T01:34:18.692Z,27.33
2023-02-23T01:36:46.421Z,29.17
2023-02-23T01:39:15.431Z,30.00
2023-02-23T01:41:44.377Z,28.47
2023-02-23T01:44:14.792Z,29.40
2023-02-23T01:46:46.671Z,27.43
2023-02-23T01:49:20.499Z,28.80
2023-02-23T01:51:50.406Z,27.93
2023-02-23T01:54:22.316Z,29.40
2023-02-23T01:56:58.199Z,29.97
2023-02-23T01:59:29.453Z,29.00
2023-02-23T02:01:57.195Z,31.60
2023-02-23T02:04:26.016Z,29.10
2023-02-23T02:06:55.331Z,30.10
2023-02-23T02:09:25.717Z,30.00
2023-02-23T02:11:55.675Z,31.10
2023-02-23T02:14:28.646Z,31.53
2023-02-23T02:17:15.380Z,30.37
2023-02-23T02:19:43.970Z,30.60
2023-02-23T02:22:29.330Z,31.43
2023-02-23T02:25:03.067Z,31.93
2023-02-23T02:27:43.621Z,30.97
2023-02-23T02:30:13.627Z,32.07
2023-02-23T02:32:42.137Z,34.60
2023-02-23T02:35:32.285Z,29.73
2023-02-23T02:38:05.680Z,31.03
2023-02-23T02:40:54.662Z,31.30
2023-02-23T02:43:40.728Z,33.10
2023-02-23T02:46:13.241Z,31.93
2023-02-23T02:48:52.819Z,30.77
2023-02-23T02:51:21.454Z,31.60
2023-02-23T02:54:07.015Z,30.17
2023-02-23T02:56:40.521Z,32.17
2023-02-23T02:59:31.414Z,32.17
2023-02-23T03:02:18.123Z,31.60
2023-02-23T03:05:04.279Z,30.80
2023-02-23T03:07:54.844Z,32.53
2023-02-23T03:10:48.723Z,32.60
2023-02-23T03:13:53.778Z,30.30
2023-02-23T03:16:52.398Z,33.30
2023-02-23T03:19:44.311Z,32.40
2023-02-23T03:22:42.439Z,29.90
2023-02-23T03:25:31.238Z,33.70
2023-02-23T03:28:30.454Z,31.63
2023-02-23T03:31:25.666Z,31.13
2023-02-23T03:34:11.809Z,32.33
2023-02-23T03:37:00.136Z,32.10
2023-02-23T03:40:12.629Z,34.27
2023-02-23T03:43:00.653Z,35.73
2023-02-23T03:45:48.456Z,34.50
2023-02-23T03:48:36.366Z,35.07
2023-02-23T03:51:24.771Z,33.80
2023-02-23T03:54:13.627Z,35.37
2023-02-23T03:57:02.288Z,34.70
2023-02-23T03:59:51.766Z,36.40
2023-02-23T04:02:38.489Z,36.63
2023-02-23T04:05:30.480Z,35.20
2023-02-23T04:08:18.523Z,35.23
2023-02-23T04:11:07.889Z,37.67
2023-02-23T04:13:41.271Z,37.47
2023-02-23T04:16:09.832Z,36.87
2023-02-23T04:18:38.684Z,37.87
2023-02-23T04:21:06.343Z,38.93
2023-02-23T04:23:35.580Z,41.20
2023-02-23T04:26:02.764Z,38.07
2023-02-23T04:28:29.985Z,40.20
2023-02-23T04:30:57.187Z,38.40
2023-02-23T04:33:25.390Z,41.10
2023-02-23T04:35:54.148Z,37.73
2023-02-23T04:38:21.629Z,40.67
2023-02-23T04:40:48.772Z,38.73
2023-02-23T04:43:16.005Z,37.60
2023-02-23T04:45:44.505Z,38.83
2023-02-23T04:48:12.029Z,38.20
2023-02-23T04:50:39.620Z,36.87
2023-02-23T04:53:06.824Z,40.03
2023-02-23T04:55:34.102Z,39.20
2023-02-23T04:58:02.172Z,39.47
2023-02-23T05:00:29.724Z,37.60
2023-02-23T05:02:57.214Z,38.30
2023-02-23T05:05:24.420Z,38.97
2023-02-23T05:07:56.630Z,40.77
2023-02-23T05:10:24.276Z,40.20
2023-02-23T05:12:51.425Z,37.40
2023-02-23T05:15:18.657Z,40.07
2023-02-23T05:17:45.817Z,39.73
2023-02-23T05:20:15.063Z,40.00
2023-02-23T05:22:42.665Z,40.87
2023-02-23T05:25:10.383Z,41.27
2023-02-23T05:27:37.804Z,38.97
2023-02-23T05:30:07.295Z,40.30
2023-02-23T05:32:37.029Z,38.73
2023-02-23T05:35:04.428Z,38.73
2023-02-23T05:37:31.733Z,41.93
2023-02-23T05:39:58.878Z,41.17
2023-02-23T05:42:26.313Z,38.93
2023-02-23T05:44:53.651Z,41.03
2023-02-23T05:47:20.806Z,38.37
2023-02-23T05:49:47.995Z,39.80
2023-02-23T05:52:15.185Z,40.70
2023-02-23T05:54:43.678Z,38.83
2023-02-23T05:57:11.624Z,39.90
2023-02-23T05:59:40.195Z,40.07
2023-02-23T06:02:07.325Z,41.23
2023-02-23T06:04:34.479Z,38.77
2023-02-23T06:07:01.679Z,42.00
2023-02-23T06:09:29.705Z,44.63
2023-02-23T06:11:59.400Z,41.07
2023-02-23T06:14:26.535Z,42.83
2023-02-23T06:16:53.854Z,43.47
2023-02-23T06:19:21.581Z,42.37
2023-02-23T06:21:48.787Z,45.60
2023-02-23T06:24:17.728Z,41.20
2023-02-23T06:26:44.912Z,40.73
2023-02-23T06:29:12.291Z,42.90
2023-02-23T06:31:42.815Z,43.47
2023-02-23T06:34:11.432Z,43.77
2023-02-23T06:36:38.654Z,45.57
2023-02-23T06:39:06.136Z,45.07
2023-02-23T06:41:41.152Z,45.63
2023-02-23T06:44:11.031Z,47.27
2023-02-23T06:46:40.304Z,45.30
2023-02-23T06:49:07.472Z,47.77
2023-02-23T06:51:34.896Z,45.27
2023-02-23T06:54:02.417Z,46.13
2023-02-23T06:56:30.737Z,47.23
2023-02-23T06:58:57.880Z,47.40
2023-02-23T07:01:25.031Z,45.17
2023-02-23T07:03:52.212Z,45.30
2023-02-23T07:06:19.396Z,44.40
2023-02-23T07:08:46.565Z,45.10
2023-02-23T07:11:15.522Z,45.13
2023-02-23T07:13:44.070Z,47.83
2023-02-23T07:16:16.252Z,46.80
2023-02-23T07:18:44.772Z,45.23
2023-02-23T07:21:11.927Z,43.73
2023-02-23T07:23:39.088Z,45.73
2023-02-23T07:26:06.223Z,43.50
2023-02-23T07:28:34.407Z,43.03
2023-02-23T07:31:01.871Z,44.23
2023-02-23T07:33:29.106Z,42.70
2023-02-23T07:35:56.251Z,46.03
2023-02-23T07:38:24.816Z,48.80
2023-02-23T07:40:52.224Z,45.43
2023-02-23T07:43:22.571Z,46.17
2023-02-23T07:45:53.139Z,43.40
2023-02-23T07:48:20.633Z,45.33
2023-02-23T07:50:48.561Z,45.37
2023-02-23T07:53:15.816Z,43.23
2023-02-23T07:55:42.959Z,43.80
2023-02-23T07:58:10.314Z,43.60
2023-02-23T08:00:39.938Z,42.90
2023-02-23T08:03:07.710Z,45.93
2023-02-23T08:05:36.633Z,42.20
2023-02-23T08:08:03.974Z,42.83
2023-02-23T08:10:32.931Z,42.47
2023-02-23T08:13:01.489Z,41.53
2023-02-23T08:15:29.276Z,40.43
2023-02-23T08:17:58.758Z,41.37
2023-02-23T08:20:27.621Z,40.50
2023-02-23T08:22:55.876Z,42.40
2023-02-23T08:25:23.185Z,39.67
2023-02-23T08:27:53.701Z,40.47
2023-02-23T08:30:25.004Z,40.40
2023-02-23T08:32:52.237Z,39.53
2023-02-23T08:35:20.191Z,37.93
2023-02-23T08:37:47.402Z,41.33
2023-02-23T08:40:19.461Z,38.53
2023-02-23T08:42:48.537Z,41.87
2023-02-23T08:45:15.931Z,39.30
2023-02-23T08:47:43.080Z,38.90
2023-02-23T08:50:10.984Z,38.87
2023-02-23T08:52:38.688Z,36.13
2023-02-23T08:55:06.468Z,39.67
2023-02-23T08:57:34.417Z,41.53
2023-02-23T09:00:02.037Z,39.90
2023-02-23T09:02:29.502Z,38.20
2023-02-23T09:04:57.356Z,38.17
2023-02-23T09:07:25.609Z,37.30
2023-02-23T09:10:01.440Z,39.10
2023-02-23T09:12:29.874Z,36.93
2023-02-23T09:14:57.926Z,40.23
2023-02-23T09:17:28.344Z,38.33
2023-02-23T09:19:55.585Z,37.67
2023-02-23T09:22:22.754Z,35.13
2023-02-23T09:24:50.848Z,36.07
2023-02-23T09:27:19.287Z,34.40
2023-02-23T09:29:46.441Z,34.30
2023-02-23T09:32:14.113Z,34.50
2023-02-23T09:34:41.355Z,34.87
2023-02-23T09:37:11.780Z,32.77
2023-02-23T09:39:39.305Z,37.20
2023-02-23T09:42:08.249Z,36.37
2023-02-23T09:45:08.094Z,35.00
2023-02-23T09:47:54.413Z,34.13
2023-02-23T09:50:22.663Z,36.10
2023-02-23T09:52:56.270Z,36.63
2023-02-23T09:55:23.968Z,35.17
2023-02-23T09:57:51.626Z,35.70
2023-02-23T10:00:27.688Z,34.77
2023-02-23T10:03:01.908Z,36.50
2023-02-23T10:05:31.762Z,32.77
2023-02-23T10:08:09.225Z,31.40
2023-02-23T10:10:48.874Z,34.87
2023-02-23T10:13:28.431Z,31.17
2023-02-23T10:15:58.083Z,32.47
2023-02-23T10:18:46.096Z,29.40
2023-02-23T10:21:14.262Z,29.40
2023-02-23T10:23:46.339Z,29.73
2023-02-23T10:26:18.913Z,30.60
2023-02-23T10:28:46.971Z,29.23
2023-02-23T10:31:29.583Z,29.37
2023-02-23T10:34:01.630Z,32.70
2023-02-23T10:36:40.876Z,28.57
2023-02-23T10:39:08.977Z,29.33
2023-02-23T10:41:38.031Z,27.77
2023-02-23T10:44:16.506Z,30.30
2023-02-23T10:46:44.681Z,30.83
2023-02-23T10:49:19.932Z,29.07
2023-02-23T10:51:47.246Z,31.33
2023-02-23T10:54:33.110Z,31.47
2023-02-23T10:57:00.292Z,29.37
2023-02-23T10:59:28.766Z,29.63
2023-02-23T11:02:02.453Z,28.10
2023-02-23T11:04:35.339Z,29.10
2023-02-23T11:07:10.083Z,29.70
2023-02-23T11:09:46.476Z,28.23
2023-02-23T11:12:26.363Z,30.50
2023-02-23T11:14:56.155Z,26.70
2023-02-23T11:17:33.861Z,25.53
2023-02-23T11:20:03.083Z,25.00
2023-02-23T11:22:37.663Z,27.73
2023-02-23T11:25:16.148Z,25.87
2023-02-23T11:27:46.637Z,26.27
2023-02-23T11:30:14.074Z,23.40
2023-02-23T11:32:43.847Z,24.20
2023-02-23T11:35:12.944Z,24.50
2023-02-23T11:37:41.879Z,21.43
2023-02-23T11:40:18.200Z,21.90
2023-02-23T11:42:53.532Z,21.10
2023-02-23T11:45:21.545Z,18.90
2023-02-23T11:47:50.424Z,20.07
2023-02-23T11:50:22.503Z,20.40
2023-02-23T11:52:52.941Z,20.23
2023-02-23T11:55:20.210Z,20.90
2023-02-23T11:57:49.637Z,19.17
2023-02-23T12:00:23.087Z,20.03
2023-02-23T12:02:53.556Z,17.40
2023-02-23T12:05:22.661Z,18.27
2023-02-23T12:08:05.279Z,18.33
2023-02-23T12:10:39.817Z,17.47
2023-02-23T12:13:16.338Z,17.57
2023-02-23T12:15:55.311Z,18.67
2023-02-23T12:18:40.990Z,15.80
2023-02-23T12:21:16.210Z,16.30
2023-02-23T12:23:46.929Z,16.17
2023-02-23T12:26:18.998Z,15.63
2023-02-23T12:29:02.448Z,15.30
2023-02-23T12:31:44.444Z,16.70
2023-02-23T12:34:14.968Z,14.40
2023-02-23T12:36:48.213Z,14.00
2023-02-23T12:39:17.761Z,13.30
2023-02-23T12:41:49.345Z,15.17
2023-02-23T12:44:32.241Z,14.60
2023-02-23T12:47:04.788Z,13.53
2023-02-23T12:49:42.281Z,16.23
2023-02-23T12:52:10.518Z,15.13
2023-02-23T12:54:38.052Z,18.10
2023-02-23T12:57:06.485Z,16.87
2023-02-23T12:59:44.026Z,14.60
2023-02-23T13:02:17.568Z,14.57
2023-02-23T13:04:50.594Z,13.40
2023-02-23T13:07:17.729Z,12.83
2023-02-23T13:09:51.101Z,12.93
2023-02-23T13:12:35.933Z,12.43
2023-02-23T13:15:20.781Z,11.83
2023-02-23T13:17:53.066Z,12.00
2023-02-23T13:20:39.254Z,12.13
2023-02-23T13:23:24.627Z,12.43
2023-02-23T13:26:01.628Z,10.47
2023-02-23T13:28:42.626Z,9.17
2023-02-23T13:31:20.990Z,10.20
2023-02-23T13:33:49.639Z,8.23
2023-02-23T13:36:17.552Z,8.40
2023-02-23T13:38:56.980Z,7.83
2023-02-23T13:41:27.320Z,7.73
2023-02-23T13:44:02.093Z,8.80
2023-02-23T13:46:42.299Z,8.27
2023-02-23T13:49:17.923Z,8.47
2023-02-23T13:51:51.114Z,8.00
2023-02-23T13:54:22.730Z,6.97
2023-02-23T13:56:52.477Z,7.47
2023-02-23T13:59:24.223Z,8.40
2023-02-23T14:01:53.436Z,7.83
2023-02-23T14:04:28.655Z,8.20
2023-02-23T14:06:58.994Z,7.20
2023-02-23T14:09:39.234Z,7.70
2023-02-23T14:12:16.559Z,7.60
2023-02-23T14:14:44.875Z,7.97
2023-02-23T14:17:12.381Z,7.30
2023-02-23T14:19:44.918Z,8.50
2023-02-23T14:22:15.033Z,8.87
2023-02-23T14:24:43.283Z,7.57
2023-02-23T14:27:27.641Z,8.73
2023-02-23T14:30:10.988Z,8.77
2023-02-23T14:32:39.521Z,8.60
2023-02-23T14:35:06.926Z,8.27
2023-02-23T14:37:43.764Z,8.90
2023-02-23T14:40:25.428Z,9.40
2023-02-23T14:42:54.273Z,8.40
2023-02-23T14:45:32.501Z,10.50
2023-02-23T14:48:03.340Z,7.90
2023-02-23T14:50:32.282Z,9.80
2023-02-23T14:53:02.165Z,10.53
2023-02-23T14:55:32.458Z,11.70
2023-02-23T14:57:59.845Z,9.97
2023-02-23T15:00:28.645Z,10.07
2023-02-23T15:03:13.461Z,9.50
2023-02-23T15:05:45.419Z,11.60
2023-02-23T15:08:16.448Z,13.90
2023-02-23T15:10:48.076Z,13.80
2023-02-23T15:13:28.999Z,12.93
2023-02-23T15:15:58.716Z,12.57
2023-02-23T15:19:03.553Z,13.20
2023-02-23T15:21:54.256Z,11.63
2023-02-23T15:24:27.662Z,13.43
2023-02-23T15:26:56.412Z,12.43
2023-02-23T15:29:24.921Z,11.00
2023-02-23T15:31:54.063Z,11.23
2023-02-23T15:34:30.669Z,11.80
2023-02-23T15:37:04.183Z,12.57
2023-02-23T15:39:46.546Z,11.90
2023-02-23T15:42:20.395Z,12.37
2023-02-23T15:44:55.386Z,13.20
2023-02-23T15:47:28.284Z,9.60
2023-02-23T15:50:34.981Z,11.10
2023-02-23T15:53:08.794Z,13.87
2023-02-23T15:55:37.319Z,13.70
2023-02-23T15:58:18.263Z,9.90
2023-02-23T16:00:46.017Z,11.60
2023-02-23T16:03:23.440Z,10.50
2023-02-23T16:06:00.105Z,12.30
2023-02-23T16:08:29.441Z,11.63
2023-02-23T16:11:04.930Z,11.87
2023-02-23T16:13:35.055Z,10.13
2023-02-23T16:16:02.301Z,11.67
2023-02-23T16:18:39.983Z,11.70
2023-02-23T16:21:07.827Z,9.20
2023-02-23T16:23:37.563Z,11.23
2023-02-23T16:26:15.730Z,9.90
2023-02-23T16:28:44.207Z,11.27
2023-02-23T16:31:16.537Z,12.10
2023-02-23T16:33:54.137Z,10.10
2023-02-23T16:36:23.192Z,11.37
2023-02-23T16:38:58.904Z,10.23
2023-02-23T16:41:27.173Z,10.70
2023-02-23T16:43:55.319Z,10.40
2023-02-23T16:46:24.546Z,10.90
2023-02-23T16:48:52.691Z,10.00
2023-02-23T16:51:22.714Z,11.53
2023-02-23T16:53:51.906Z,10.47
2023-02-23T16:56:21.321Z,11.43
2023-02-23T16:58:53.534Z,12.37
2023-02-23T17:01:22.049Z,11.00
2023-02-23T17:03:53.138Z,10.60
2023-02-23T17:06:21.461Z,13.53
2023-02-23T17:08:58.153Z,12.43
2023-02-23T17:11:26.165Z,11.90
2023-02-23T17:13:55.345Z,12.53
2023-02-23T17:16:22.822Z,11.77
2023-02-23T17:18:50.234Z,15.27
2023-02-23T17:21:23.496Z,13.40
2023-02-23T17:23:51.110Z,11.03
2023-02-23T17:26:21.650Z,13.03
2023-02-23T17:28:49.192Z,12.90
2023-02-23T17:31:17.392Z,11.77
2023-02-23T17:33:45.093Z,12.40
2023-02-23T17:36:13.893Z,11.47
2023-02-23T17:38:44.508Z,14.03
2023-02-23T17:41:14.302Z,13.53
2023-02-23T17:43:41.811Z,13.57
2023-02-23T17:46:10.912Z,13.57
2023-02-23T17:48:49.616Z,13.50
2023-02-23T17:51:19.286Z,14.90
2023-02-23T17:53:46.632Z,14.33
2023-02-23T17:56:15.899Z,15.67
2023-02-23T17:58:43.064Z,15.27
2023-02-23T18:01:10.476Z,16.20
2023-02-23T18:03:38.178Z,16.13
2023-02-23T18:06:09.525Z,15.73
2023-02-23T18:08:37.264Z,17.90
2023-02-23T18:11:04.521Z,19.20
2023-02-23T18:13:33.672Z,17.20
2023-02-23T18:16:02.569Z,18.47
2023-02-23T18:18:29.932Z,16.90
2023-02-23T18:20:58.229Z,17.00
2023-02-23T18:23:25.953Z,17.70
2023-02-23T18:25:53.172Z,17.80
2023-02-23T18:28:20.390Z,17.67
2023-02-23T18:30:47.965Z,18.40
2023-02-23T18:33:15.200Z,19.47
2023-02-23T18:35:44.851Z,18.67
2023-02-23T18:38:12.597Z,21.63
2023-02-23T18:40:41.416Z,19.37
2023-02-23T18:43:12.522Z,19.23
2023-02-23T18:45:40.680Z,19.13
2023-02-23T18:48:10.733Z,18.83
2023-02-23T18:50:37.869Z,17.97
2023-02-23T18:53:06.027Z,19.20
2023-02-23T18:55:33.211Z,20.07
2023-02-23T18:58:03.001Z,18.93
2023-02-23T19:00:33.962Z,20.30
2023-02-23T19:03:01.464Z,19.17
2023-02-23T19:05:28.690Z,20.23
2023-02-23T19:07:56.086Z,21.13
2023-02-23T19:10:23.270Z,20.50
2023-02-23T19:12:50.536Z,16.83
2023-02-23T19:15:17.815Z,17.80
2023-02-23T19:17:46.507Z,18.23
2023-02-23T19:20:14.978Z,19.30
2023-02-23T19:22:42.384Z,17.67
2023-02-23T19:25:14.069Z,18.20
2023-02-23T19:27:41.661Z,18.20
2023-02-23T19:30:09.998Z,18.60
2023-02-23T19:32:39.851Z,19.17
2023-02-23T19:35:08.964Z,16.30
2023-02-23T19:37:36.154Z,16.70
2023-02-23T19:40:03.949Z,17.10
2023-02-23T19:42:32.636Z,17.87
2023-02-23T19:45:01.632Z,17.97
2023-02-23T19:47:28.869Z,17.10
2023-02-23T19:49:56.043Z,17.03
2023-02-23T19:52:24.646Z,14.40
2023-02-23T19:54:51.770Z,15.73
2023-02-23T19:57:20.629Z,18.83
2023-02-23T19:59:47.789Z,16.23
2023-02-23T20:02:15.462Z,19.90
2023-02-23T20:04:42.680Z,17.93
2023-02-23T20:07:11.401Z,16.80
2023-02-23T20:09:38.621Z,16.40
2023-02-23T20:12:06.086Z,16.47
2023-02-23T20:14:33.337Z,16.70
2023-02-23T20:17:00.947Z,17.40
2023-02-23T20:19:28.204Z,15.77
2023-02-23T20:21:55.431Z,16.77
2023-02-23T20:24:22.861Z,16.33
2023-02-23T20:26:52.245Z,16.47
2023-02-23T20:29:19.628Z,15.37
2023-02-23T20:31:51.296Z,15.47
2023-02-23T20:34:22.189Z,15.93
2023-02-23T20:36:51.018Z,14.23
2023-02-23T20:39:21.105Z,15.17
2023-02-23T20:41:53.244Z,15.00
2023-02-23T20:44:21.286Z,15.67
2023-02-23T20:46:48.455Z,14.70
2023-02-23T20:49:19.298Z,16.47
2023-02-23T20:51:48.444Z,14.20
2023-02-23T20:54:15.869Z,16.50
2023-02-23T20:56:43.521Z,17.00
2023-02-23T20:59:11.276Z,16.70
2023-02-23T21:01:40.306Z,18.83
2023-02-23T21:04:07.926Z,15.93
2023-02-23T21:06:35.410Z,16.67
2023-02-23T21:09:04.090Z,16.30
2023-02-23T21:11:32.041Z,15.80
2023-02-23T21:13:59.938Z,17.73
2023-02-23T21:16:32.089Z,19.20
2023-02-23T21:19:05.193Z,17.43
2023-02-23T21:21:38.294Z,17.97
2023-02-23T21:24:05.549Z,15.73
2023-02-23T21:26:33.091Z,16.60
2023-02-23T21:29:00.333Z,15.97
2023-02-23T21:31:27.505Z,14.70
2023-02-23T21:33:54.812Z,14.47
2023-02-23T21:36:22.049Z,15.40
2023-02-23T21:38:49.685Z,16.30
2023-02-23T21:41:16.867Z,15.50
2023-02-23T21:43:44.901Z,17.03
2023-02-23T21:46:13.641Z,16.23
2023-02-23T21:48:41.068Z,16.50
2023-02-23T21:51:11.493Z,17.53
2023-02-23T21:53:39.229Z,15.40
2023-02-23T21:56:07.608Z,18.40
2023-02-23T21:58:34.908Z,19.10
2023-02-23T22:01:09.908Z,19.07
2023-02-23T22:03:37.039Z,18.33
2023-02-23T22:06:04.303Z,19.23
2023-02-23T22:08:31.454Z,18.13
2023-02-23T22:10:58.565Z,16.60
2023-02-23T22:13:26.721Z,19.30
2023-02-23T22:15:58.884Z,18.80
2023-02-23T22:18:26.173Z,18.63
2023-02-23T22:20:57.732Z,17.27
2023-02-23T22:23:25.399Z,15.37
2023-02-23T22:25:52.878Z,18.40
2023-02-23T22:28:20.044Z,17.93
2023-02-23T22:30:50.858Z,17.80
2023-02-23T22:33:19.554Z,18.90
2023-02-23T22:35:47.057Z,17.80
2023-02-23T22:38:14.282Z,17.73
2023-02-23T22:40:42.207Z,17.90
2023-02-23T22:43:10.657Z,17.77
2023-02-23T22:45:38.663Z,15.53
2023-02-23T22:48:06.728Z,15.20
2023-02-23T22:50:34.585Z,15.80
2023-02-23T22:53:01.764Z,16.40
2023-02-23T22:55:29.545Z,16.70
2023-02-23T22:57:58.264Z,17.30
2023-02-23T23:00:27.024Z,16.70
2023-02-23T23:02:58.597Z,17.07
2023-02-23T23:05:26.455Z,16.67
2023-02-23T23:07:53.771Z,17.37
2023-02-23T23:10:21.105Z,17.70
2023-02-23T23:12:48.875Z,16.00
2023-02-23T23:15:17.478Z,16.50
2023-02-23T23:17:51.068Z,19.40
2023-02-23T23:20:22.804Z,16.90
2023-02-23T23:22:50.197Z,18.60
2023-02-23T23:25:23.432Z,18.80
2023-02-23T23:27:54.476Z,15.57
2023-02-23T23:30:23.325Z,17.10
2023-02-23T23:32:51.086Z,17.10
2023-02-23T23:35:22.328Z,15.93
2023-02-23T23:37:53.005Z,16.10
2023-02-23T23:40:24.223Z,17.07
2023-02-23T23:42:52.643Z,16.20
2023-02-23T23:45:24.507Z,16.20
2023-02-23T23:47:52.175Z,16.43
2023-02-23T23:50:24.339Z,15.73
2023-02-23T23:52:51.783Z,17.23
2023-02-23T23:55:19.247Z,16.90
2023-02-23T23:57:46.637Z,14.97
